Terminal Aerodrome Forecast
Issued by NWS

Home | Current Version | Previous Version | Text Only | Print | Product List | Glossary On
Versions: 1 2 3 4 5 6 7 8 9 10 11 12 13 14 15 16 17 18 19 20 21 22 23 24
000
FTUS46 KSEW 031120
TAFSEA
TAF
KSEA 031120Z 0312/0418 VRB04KT P6SM OVC160
     FM031600 21005KT P6SM BKN200
     FM032000 23007KT P6SM SCT200
     FM040400 24005KT P6SM BKN050
     FM041000 19005KT P6SM OVC020=

USA.gov is the U.S. government's official web portal to all federal, state and local government web resources and services.